KMYR

Myrtle Beach International Airport

Myrtle Beach, South Carolina, USA
METAR KMYR 252156Z COR 19011KT 10SM FEW040 26/22 A3003 RMK AO2 SLP169 T02610217
Observed Flight Rules
May-25 @ 21:56 UTC (28 minutes ago) Visual Flight Rules
Wind Visibility Clouds
190° at 11 knots 10 miles
  • Few at 4,000' AGL
Temperatures Readings
Current 26°C / 79°F
Dewpoint 22°C / 72°F
Humidity 79%
Altimeter 30.03" Hg
Pressure 1016.9 hPa
Elevation 8
METAR KMYR 252156Z COR 19011KT 10SM FEW040 26/22 A3003 RMK AO2 SLP169 T02610217
Observed Flight Rules
May-25 @ 21:56 UTC
(28 minutes ago)
VFR
Wind Visibility
190° at 11 knots 10 miles
Clouds
  • Few at 4,000' AGL
Temperature Dewpoint
26°C / 79°F 22°C / 72°F
Humidity Altimeter Pressure
79% 30.03" Hg 1016.9 hPa